createdAt,value
2018-08-13T00:00:13.190Z,99.90
2018-08-13T00:02:42.390Z,99.90
2018-08-13T00:05:11.491Z,99.90
2018-08-13T00:07:40.614Z,99.90
2018-08-13T00:10:10.995Z,99.90
2018-08-13T00:12:40.146Z,99.90
2018-08-13T00:15:09.250Z,99.90
2018-08-13T00:17:38.504Z,99.90
2018-08-13T00:20:08.770Z,99.90
2018-08-13T00:22:37.907Z,99.90
2018-08-13T00:25:07.050Z,99.90
2018-08-13T00:27:36.394Z,99.90
2018-08-13T00:30:05.983Z,99.90
2018-08-13T00:32:35.210Z,99.90
2018-08-13T00:35:04.699Z,99.90
2018-08-13T00:37:33.862Z,99.90
2018-08-13T00:40:03.065Z,99.90
2018-08-13T00:42:32.986Z,99.90
2018-08-13T00:45:02.486Z,99.90
2018-08-13T00:47:31.706Z,99.90
2018-08-13T00:50:00.919Z,99.90
2018-08-13T00:52:30.266Z,99.90
2018-08-13T00:54:59.667Z,99.90
2018-08-13T00:57:28.838Z,99.90
2018-08-13T00:59:58.481Z,99.90
2018-08-13T01:02:27.603Z,99.90
2018-08-13T01:04:56.806Z,99.90
2018-08-13T01:07:26.314Z,99.90
2018-08-13T01:09:55.449Z,99.90
2018-08-13T01:12:25.699Z,99.90
2018-08-13T01:14:55.229Z,99.90
2018-08-13T01:17:24.374Z,99.90
2018-08-13T01:19:53.497Z,99.90
2018-08-13T01:22:22.879Z,99.90
2018-08-13T01:24:52.325Z,99.90
2018-08-13T01:27:26.610Z,99.90
2018-08-13T01:29:55.740Z,99.90
2018-08-13T01:32:25.104Z,99.90
2018-08-13T01:34:54.218Z,99.90
2018-08-13T01:37:23.406Z,99.90
2018-08-13T01:39:52.593Z,99.90
2018-08-13T01:42:21.750Z,99.90
2018-08-13T01:44:50.917Z,99.90
2018-08-13T01:47:20.097Z,99.90
2018-08-13T01:49:49.298Z,99.90
2018-08-13T01:52:19.330Z,99.90
2018-08-13T01:54:48.455Z,99.90
2018-08-13T01:57:17.613Z,99.90
2018-08-13T01:59:46.822Z,99.90
2018-08-13T02:02:16.704Z,99.90
2018-08-13T02:04:49.175Z,99.90
2018-08-13T02:07:20.685Z,99.90
2018-08-13T02:09:50.597Z,99.90
2018-08-13T02:12:20.611Z,99.90
2018-08-13T02:14:50.644Z,99.90
2018-08-13T02:17:20.707Z,99.90
2018-08-13T02:19:51.690Z,99.90
2018-08-13T02:22:21.260Z,99.90
2018-08-13T02:24:50.421Z,99.90
2018-08-13T02:27:19.550Z,99.90
2018-08-13T02:29:49.029Z,99.90
2018-08-13T02:32:18.131Z,99.90
2018-08-13T02:34:46.973Z,99.90
2018-08-13T02:37:16.354Z,99.90
2018-08-13T02:39:45.458Z,99.90
2018-08-13T02:42:14.782Z,99.90
2018-08-13T02:44:44.110Z,99.90
2018-08-13T02:47:13.265Z,99.90
2018-08-13T02:49:42.389Z,99.90
2018-08-13T02:52:11.706Z,99.90
2018-08-13T02:54:40.903Z,99.90
2018-08-13T02:57:10.010Z,99.90
2018-08-13T02:59:39.155Z,99.90
2018-08-13T03:02:08.234Z,99.90
2018-08-13T03:04:37.377Z,99.90
2018-08-13T03:07:06.879Z,99.90
2018-08-13T03:09:36.006Z,99.90
2018-08-13T03:12:05.315Z,99.90
2018-08-13T03:14:34.475Z,99.90
2018-08-13T03:17:03.589Z,99.90
2018-08-13T03:19:32.704Z,99.90
2018-08-13T03:22:01.790Z,99.90
2018-08-13T03:24:31.713Z,99.90
2018-08-13T03:27:01.037Z,99.90
2018-08-13T03:29:30.217Z,99.90
2018-08-13T03:31:59.431Z,99.90
2018-08-13T03:34:28.723Z,99.90
2018-08-13T03:36:58.026Z,99.90
2018-08-13T03:39:27.854Z,99.90
2018-08-13T03:41:57.029Z,99.90
2018-08-13T03:44:26.106Z,99.90
2018-08-13T03:46:55.193Z,99.90
2018-08-13T03:49:24.281Z,99.90
2018-08-13T03:51:58.242Z,99.90
2018-08-13T03:54:27.349Z,99.90
2018-08-13T03:56:57.250Z,99.90
2018-08-13T03:59:26.346Z,99.90
2018-08-13T04:01:55.483Z,99.90
2018-08-13T04:04:24.606Z,99.90
2018-08-13T04:06:53.716Z,99.90
2018-08-13T04:09:22.901Z,99.90
2018-08-13T04:11:52.686Z,99.90
2018-08-13T04:14:22.257Z,99.90
2018-08-13T04:16:58.842Z,99.90
2018-08-13T04:19:27.969Z,99.90
2018-08-13T04:21:57.237Z,99.90
2018-08-13T04:24:26.457Z,99.90
2018-08-13T04:26:55.799Z,99.90
2018-08-13T04:29:25.738Z,99.90
2018-08-13T04:31:56.738Z,99.90
2018-08-13T04:34:25.861Z,99.90
2018-08-13T04:36:55.037Z,99.90
2018-08-13T04:39:24.218Z,99.90
2018-08-13T04:41:53.310Z,99.90
2018-08-13T04:44:22.414Z,99.90
2018-08-13T04:46:51.546Z,99.90
2018-08-13T04:49:21.169Z,99.90
2018-08-13T04:51:50.261Z,99.90
2018-08-13T04:54:19.358Z,99.90
2018-08-13T04:56:48.470Z,99.90
2018-08-13T04:59:17.702Z,99.90
2018-08-13T05:01:46.816Z,99.90
2018-08-13T05:04:15.910Z,99.90
2018-08-13T05:06:45.839Z,99.90
2018-08-13T05:09:14.938Z,99.90
2018-08-13T05:11:44.053Z,99.90
2018-08-13T05:14:13.149Z,99.90
2018-08-13T05:16:43.049Z,99.90
2018-08-13T05:19:12.506Z,99.90
2018-08-13T05:21:41.609Z,99.90
2018-08-13T05:24:11.493Z,99.90
2018-08-13T05:26:40.736Z,99.90
2018-08-13T05:29:10.687Z,99.90
2018-08-13T05:31:39.854Z,99.90
2018-08-13T05:34:09.215Z,99.90
2018-08-13T05:36:37.932Z,99.90
2018-08-13T05:39:11.349Z,99.90
2018-08-13T05:41:40.610Z,98.90
2018-08-13T05:44:11.302Z,98.30
2018-08-13T05:46:40.434Z,97.80
2018-08-13T05:49:11.986Z,96.30
2018-08-13T05:51:41.153Z,95.80
2018-08-13T05:54:10.365Z,94.10
2018-08-13T05:56:39.694Z,93.00
2018-08-13T05:59:09.269Z,92.10
2018-08-13T06:01:39.331Z,92.40
2018-08-13T06:04:08.550Z,92.00
2018-08-13T06:06:38.743Z,91.90
2018-08-13T06:09:11.185Z,91.20
2018-08-13T06:11:40.482Z,91.50
2018-08-13T06:14:11.921Z,91.90
2018-08-13T06:16:41.419Z,92.50
2018-08-13T06:19:10.525Z,93.00
2018-08-13T06:21:40.381Z,93.60
2018-08-13T06:24:09.661Z,94.20
2018-08-13T06:26:38.727Z,93.80
2018-08-13T06:29:07.949Z,93.90
2018-08-13T06:31:37.260Z,92.60
2018-08-13T06:34:11.106Z,92.20
2018-08-13T06:36:40.944Z,91.10
2018-08-13T06:39:11.273Z,90.10
2018-08-13T06:41:40.696Z,86.50
2018-08-13T06:44:09.853Z,86.10
2018-08-13T06:46:39.173Z,84.40
2018-08-13T06:49:09.527Z,86.30
2018-08-13T06:51:38.550Z,84.20
2018-08-13T06:54:07.678Z,82.10
2018-08-13T06:56:37.325Z,78.20
2018-08-13T06:59:11.112Z,77.60
2018-08-13T07:01:40.459Z,75.90
2018-08-13T07:04:10.363Z,69.90
2018-08-13T07:06:40.866Z,68.10
2018-08-13T07:09:11.321Z,68.60
2018-08-13T07:11:41.593Z,70.50
2018-08-13T07:14:10.718Z,73.50
2018-08-13T07:16:39.810Z,76.90
2018-08-13T07:19:09.450Z,79.80
2018-08-13T07:21:38.541Z,82.70
2018-08-13T07:24:07.874Z,84.40
2018-08-13T07:26:37.228Z,85.80
2018-08-13T07:29:06.678Z,86.30
2018-08-13T07:31:35.459Z,87.10
2018-08-13T07:34:05.329Z,88.50
2018-08-13T07:36:34.688Z,88.90
2018-08-13T07:39:03.950Z,89.20
2018-08-13T07:41:33.142Z,89.00
2018-08-13T07:44:02.486Z,89.40
2018-08-13T07:46:32.087Z,89.50
2018-08-13T07:49:01.173Z,89.30
2018-08-13T07:51:30.373Z,89.90
2018-08-13T07:53:59.926Z,89.00
2018-08-13T07:56:29.092Z,88.60
2018-08-13T07:58:58.698Z,87.60
2018-08-13T08:01:28.414Z,87.30
2018-08-13T08:03:57.563Z,84.50
2018-08-13T08:06:26.717Z,81.60
2018-08-13T08:08:55.800Z,81.10
2018-08-13T08:11:24.920Z,78.40
2018-08-13T08:13:54.040Z,77.40
2018-08-13T08:16:23.134Z,74.50
2018-08-13T08:18:52.783Z,73.10
2018-08-13T08:21:25.393Z,74.70
2018-08-13T08:23:54.513Z,77.00
2018-08-13T08:26:24.020Z,78.60
2018-08-13T08:28:53.759Z,80.90
2018-08-13T08:31:23.266Z,82.60
2018-08-13T08:33:52.545Z,83.20
2018-08-13T08:36:21.882Z,85.30
2018-08-13T08:38:51.698Z,87.90
2018-08-13T08:41:20.834Z,88.10
2018-08-13T08:43:50.010Z,90.10
2018-08-13T08:46:19.477Z,90.80
2018-08-13T08:48:48.593Z,90.90
2018-08-13T08:51:17.750Z,92.00
2018-08-13T08:53:46.893Z,92.50
2018-08-13T08:56:16.750Z,92.60
2018-08-13T08:58:45.885Z,92.30
2018-08-13T09:01:15.039Z,92.30
2018-08-13T09:03:44.154Z,93.20
2018-08-13T09:06:13.278Z,93.10
2018-08-13T09:08:42.407Z,93.80
2018-08-13T09:11:11.522Z,94.70
2018-08-13T09:13:40.674Z,95.50
2018-08-13T09:16:09.862Z,97.20
2018-08-13T09:18:56.401Z,98.60
2018-08-13T09:21:32.389Z,99.20
2018-08-13T09:24:19.879Z,99.90
2018-08-13T09:26:59.918Z,99.90
2018-08-13T09:29:45.958Z,99.90
2018-08-13T09:32:33.189Z,99.90
2018-08-13T09:35:10.502Z,99.90
2018-08-13T09:37:39.667Z,99.90
2018-08-13T09:40:09.683Z,99.90
2018-08-13T09:42:38.833Z,99.90
2018-08-13T09:45:09.148Z,99.90
2018-08-13T09:47:39.017Z,99.90
2018-08-13T09:50:12.649Z,99.90
2018-08-13T09:52:42.174Z,99.90
2018-08-13T09:55:11.512Z,99.90
2018-08-13T09:57:40.782Z,99.90
2018-08-13T10:00:16.840Z,99.90
2018-08-13T10:02:46.946Z,99.90
2018-08-13T10:05:16.626Z,99.90
2018-08-13T10:07:46.342Z,99.90
2018-08-13T10:10:16.581Z,99.90
2018-08-13T10:12:46.365Z,99.90
2018-08-13T10:15:16.113Z,99.90
2018-08-13T10:17:51.881Z,99.90
2018-08-13T10:20:22.097Z,99.90
2018-08-13T10:22:51.214Z,99.90
2018-08-13T10:25:20.425Z,99.90
2018-08-13T10:27:49.576Z,99.90
2018-08-13T10:30:19.489Z,99.90
2018-08-13T10:32:48.639Z,99.90
2018-08-13T10:35:16.904Z,99.90
2018-08-13T10:37:46.499Z,99.90
2018-08-13T10:40:18.263Z,99.90
2018-08-13T10:42:47.261Z,99.80
2018-08-13T10:45:16.742Z,99.80
2018-08-13T10:47:46.338Z,99.90
2018-08-13T10:50:15.697Z,99.50
2018-08-13T10:52:45.164Z,99.90
2018-08-13T10:55:15.547Z,99.90
2018-08-13T10:57:46.125Z,99.80
2018-08-13T11:00:16.498Z,99.90
2018-08-13T11:02:45.952Z,99.90
2018-08-13T11:05:15.598Z,99.90
2018-08-13T11:07:45.034Z,99.90
2018-08-13T11:10:16.265Z,99.90
2018-08-13T11:12:45.310Z,99.90
2018-08-13T11:15:19.053Z,99.90
2018-08-13T11:17:48.160Z,99.90
2018-08-13T11:20:17.595Z,99.90
2018-08-13T11:22:47.473Z,99.90
2018-08-13T11:25:17.367Z,99.90
2018-08-13T11:27:46.703Z,99.90
2018-08-13T11:30:17.298Z,99.90
2018-08-13T11:32:46.421Z,99.90
2018-08-13T11:35:16.036Z,99.90
2018-08-13T11:37:45.244Z,99.90
2018-08-13T11:40:16.723Z,99.90
2018-08-13T11:42:46.813Z,99.90
2018-08-13T11:45:16.009Z,99.90
2018-08-13T11:47:45.165Z,99.90
2018-08-13T11:50:20.329Z,99.90
2018-08-13T11:52:50.585Z,99.90
2018-08-13T11:55:21.120Z,99.90
2018-08-13T11:57:51.209Z,99.90
2018-08-13T12:00:20.349Z,99.90
2018-08-13T12:02:49.481Z,99.90
2018-08-13T12:05:18.589Z,98.70
2018-08-13T12:07:47.760Z,99.10
2018-08-13T12:10:17.358Z,99.90
2018-08-13T12:12:46.514Z,99.90
2018-08-13T12:15:15.765Z,99.90
2018-08-13T12:17:45.204Z,99.90
2018-08-13T12:20:17.188Z,99.90
2018-08-13T12:22:46.686Z,99.90
2018-08-13T12:25:23.655Z,99.90
2018-08-13T12:27:53.250Z,99.90
2018-08-13T12:30:22.395Z,99.90
2018-08-13T12:32:52.114Z,99.90
2018-08-13T12:35:21.303Z,99.90
2018-08-13T12:37:50.785Z,99.90
2018-08-13T12:40:20.041Z,99.90
2018-08-13T12:42:49.777Z,99.90
2018-08-13T12:45:19.385Z,99.90
2018-08-13T12:47:49.154Z,99.90
2018-08-13T12:50:20.249Z,99.90
2018-08-13T12:52:50.578Z,99.90
2018-08-13T12:55:19.745Z,99.90
2018-08-13T12:57:48.923Z,99.90
2018-08-13T13:00:19.114Z,99.90
2018-08-13T13:02:48.255Z,99.90
2018-08-13T13:05:18.117Z,99.90
2018-08-13T13:07:47.256Z,99.90
2018-08-13T13:10:17.434Z,99.90
2018-08-13T13:12:46.721Z,99.90
2018-08-13T13:15:17.929Z,99.90
2018-08-13T13:17:47.830Z,99.90
2018-08-13T13:20:19.269Z,99.90
2018-08-13T13:22:48.756Z,99.90
2018-08-13T13:25:19.017Z,97.60
2018-08-13T13:27:48.137Z,97.10
2018-08-13T13:30:17.734Z,96.30
2018-08-13T13:32:47.430Z,96.70
2018-08-13T13:35:17.745Z,97.10
2018-08-13T13:37:52.109Z,97.20
2018-08-13T13:40:21.768Z,96.70
2018-08-13T13:42:50.859Z,95.20
2018-08-13T13:45:20.150Z,95.10
2018-08-13T13:47:49.289Z,93.80
2018-08-13T13:50:19.423Z,93.90
2018-08-13T13:52:48.561Z,95.40
2018-08-13T13:55:17.962Z,95.90
2018-08-13T13:57:46.797Z,94.90
2018-08-13T14:00:18.551Z,94.30
2018-08-13T14:02:49.185Z,94.00
2018-08-13T14:05:18.438Z,94.60
2018-08-13T14:07:47.685Z,94.00
2018-08-13T14:10:19.406Z,93.40
2018-08-13T14:12:48.553Z,94.60
2018-08-13T14:15:20.921Z,95.50
2018-08-13T14:17:50.717Z,95.10
2018-08-13T14:20:20.101Z,94.60
2018-08-13T14:22:49.249Z,95.00
2018-08-13T14:25:18.366Z,95.10
2018-08-13T14:27:47.979Z,95.80
2018-08-13T14:30:21.386Z,95.00
2018-08-13T14:32:51.310Z,94.30
2018-08-13T14:35:21.658Z,93.20
2018-08-13T14:37:51.181Z,94.10
2018-08-13T14:40:20.997Z,94.60
2018-08-13T14:42:50.126Z,94.90
2018-08-13T14:45:19.850Z,94.40
2018-08-13T14:47:50.452Z,95.10
2018-08-13T14:50:19.619Z,94.90
2018-08-13T14:52:49.509Z,93.30
2018-08-13T14:55:22.233Z,91.30
2018-08-13T14:57:51.398Z,92.00
2018-08-13T15:00:25.602Z,93.60
2018-08-13T15:02:56.191Z,94.00
2018-08-13T15:05:25.395Z,93.40
2018-08-13T15:07:54.514Z,94.10
2018-08-13T15:10:25.022Z,95.40
2018-08-13T15:12:54.357Z,98.80
2018-08-13T15:15:23.495Z,99.90
2018-08-13T15:17:52.878Z,99.90
2018-08-13T15:20:24.773Z,99.90
2018-08-13T15:22:54.136Z,99.90
2018-08-13T15:25:23.321Z,99.90
2018-08-13T15:27:52.580Z,99.90
2018-08-13T15:30:22.602Z,99.90
2018-08-13T15:32:53.757Z,99.90
2018-08-13T15:35:22.899Z,99.90
2018-08-13T15:37:52.284Z,99.90
2018-08-13T15:40:21.125Z,99.90
2018-08-13T15:42:49.938Z,99.90
2018-08-13T15:45:21.821Z,99.90
2018-08-13T15:47:51.251Z,99.90
2018-08-13T15:50:21.520Z,99.90
2018-08-13T15:52:51.047Z,99.90
2018-08-13T15:55:20.666Z,99.90
2018-08-13T15:57:49.828Z,99.90
2018-08-13T16:00:26.997Z,99.90
2018-08-13T16:02:56.409Z,99.90
2018-08-13T16:05:25.550Z,99.90
2018-08-13T16:07:54.793Z,99.90
2018-08-13T16:10:23.862Z,99.90
2018-08-13T16:12:55.284Z,99.90
2018-08-13T16:15:25.368Z,99.90
2018-08-13T16:17:54.946Z,99.90
2018-08-13T16:20:24.757Z,99.90
2018-08-13T16:22:54.034Z,99.90
2018-08-13T16:25:23.262Z,99.90
2018-08-13T16:27:52.953Z,99.90
2018-08-13T16:30:26.942Z,99.90
2018-08-13T16:32:56.238Z,99.90
2018-08-13T16:35:25.790Z,99.90
2018-08-13T16:37:55.285Z,99.90
2018-08-13T16:40:25.205Z,99.90
2018-08-13T16:42:54.937Z,99.90
2018-08-13T16:45:24.877Z,99.90
2018-08-13T16:47:56.511Z,99.90
2018-08-13T16:50:30.585Z,99.90
2018-08-13T16:53:00.882Z,99.90
2018-08-13T16:55:31.825Z,99.90
2018-08-13T16:58:00.469Z,99.90
2018-08-13T17:00:31.023Z,99.90
2018-08-13T17:02:59.269Z,99.90
2018-08-13T17:05:31.350Z,99.90
2018-08-13T17:08:00.648Z,99.90
2018-08-13T17:10:31.001Z,99.90
2018-08-13T17:12:59.889Z,99.90
2018-08-13T17:15:31.665Z,99.90
2018-08-13T17:18:02.266Z,99.90
2018-08-13T17:20:34.142Z,99.90
2018-08-13T17:23:03.317Z,99.90
2018-08-13T17:25:32.417Z,99.90
2018-08-13T17:28:01.700Z,99.90
2018-08-13T17:30:31.445Z,99.90
2018-08-13T17:33:02.073Z,99.90
2018-08-13T17:35:34.367Z,99.90
2018-08-13T17:38:06.069Z,99.90
2018-08-13T17:40:35.290Z,99.90
2018-08-13T17:43:05.520Z,99.90
2018-08-13T17:45:34.496Z,99.90
2018-08-13T17:48:03.665Z,99.90
2018-08-13T17:50:32.824Z,99.90
2018-08-13T17:53:02.439Z,99.90
2018-08-13T17:55:32.337Z,99.90
2018-08-13T17:58:02.998Z,99.90
2018-08-13T18:00:32.254Z,99.90
2018-08-13T18:03:02.068Z,99.90
2018-08-13T18:05:32.003Z,99.90
2018-08-13T18:08:02.870Z,99.90
2018-08-13T18:10:33.401Z,99.90
2018-08-13T18:13:04.585Z,99.90
2018-08-13T18:15:34.221Z,99.90
2018-08-13T18:18:03.750Z,99.90
2018-08-13T18:20:33.079Z,99.90
2018-08-13T18:23:02.202Z,99.90
2018-08-13T18:25:31.367Z,99.90
2018-08-13T18:28:01.160Z,99.90
2018-08-13T18:30:30.402Z,99.90
2018-08-13T18:33:00.522Z,99.90
2018-08-13T18:35:29.689Z,99.90
2018-08-13T18:38:00.495Z,99.90
2018-08-13T18:40:32.090Z,99.90
2018-08-13T18:43:01.518Z,99.90
2018-08-13T18:45:30.917Z,99.90
2018-08-13T18:48:00.817Z,99.90
2018-08-13T18:50:30.027Z,99.90
2018-08-13T18:52:59.269Z,99.90
2018-08-13T18:55:28.254Z,99.90
2018-08-13T18:57:57.094Z,99.90
2018-08-13T19:00:28.500Z,99.90
2018-08-13T19:02:59.505Z,99.90
2018-08-13T19:05:28.822Z,99.90
2018-08-13T19:07:58.380Z,99.90
2018-08-13T19:10:28.018Z,99.90
2018-08-13T19:12:57.129Z,99.90
2018-08-13T19:15:27.463Z,99.90
2018-08-13T19:17:56.653Z,99.90
2018-08-13T19:20:26.174Z,99.90
2018-08-13T19:22:55.405Z,99.90
2018-08-13T19:25:27.556Z,99.90
2018-08-13T19:27:57.517Z,99.90
2018-08-13T19:30:27.604Z,99.90
2018-08-13T19:32:56.753Z,99.90
2018-08-13T19:35:26.005Z,99.90
2018-08-13T19:37:55.149Z,99.90
2018-08-13T19:40:25.619Z,99.90
2018-08-13T19:42:54.757Z,99.90
2018-08-13T19:45:24.687Z,99.90
2018-08-13T19:47:54.725Z,99.90
2018-08-13T19:50:23.708Z,99.90
2018-08-13T19:52:53.325Z,99.90
2018-08-13T19:55:23.161Z,99.90
2018-08-13T19:57:52.350Z,99.90
2018-08-13T20:00:27.103Z,99.90
2018-08-13T20:02:56.682Z,99.90
2018-08-13T20:05:26.902Z,99.90
2018-08-13T20:07:56.193Z,99.90
2018-08-13T20:10:25.321Z,99.90
2018-08-13T20:12:54.451Z,99.90
2018-08-13T20:15:25.031Z,99.90
2018-08-13T20:17:54.158Z,99.90
2018-08-13T20:20:25.679Z,99.90
2018-08-13T20:22:54.793Z,99.90
2018-08-13T20:25:23.915Z,99.90
2018-08-13T20:27:53.853Z,99.90
2018-08-13T20:30:23.546Z,99.90
2018-08-13T20:32:53.828Z,99.90
2018-08-13T20:35:23.169Z,99.90
2018-08-13T20:37:52.437Z,99.90
2018-08-13T20:40:22.237Z,99.90
2018-08-13T20:42:51.651Z,99.90
2018-08-13T20:45:21.988Z,99.90
2018-08-13T20:47:51.437Z,99.90
2018-08-13T20:50:22.881Z,99.90
2018-08-13T20:52:53.626Z,99.90
2018-08-13T20:55:27.438Z,99.90
2018-08-13T20:57:56.634Z,99.90
2018-08-13T21:00:27.365Z,99.90
2018-08-13T21:02:56.508Z,99.90
2018-08-13T21:05:25.638Z,99.90
2018-08-13T21:07:54.862Z,99.90
2018-08-13T21:10:25.304Z,99.90
2018-08-13T21:12:54.743Z,99.90
2018-08-13T21:15:24.656Z,99.90
2018-08-13T21:17:54.570Z,99.90
2018-08-13T21:20:26.926Z,99.90
2018-08-13T21:22:56.489Z,99.90
2018-08-13T21:25:25.635Z,99.90
2018-08-13T21:27:55.070Z,99.90
2018-08-13T21:30:24.163Z,99.90
2018-08-13T21:32:53.539Z,99.90
2018-08-13T21:35:25.175Z,99.90
2018-08-13T21:37:54.712Z,99.90
2018-08-13T21:40:23.832Z,99.90
2018-08-13T21:42:52.998Z,99.90
2018-08-13T21:45:22.209Z,99.90
2018-08-13T21:47:51.037Z,99.90
2018-08-13T21:50:22.641Z,99.90
2018-08-13T21:52:54.240Z,99.90
2018-08-13T21:55:25.041Z,99.90
2018-08-13T21:57:54.345Z,99.90
2018-08-13T22:00:31.165Z,99.90
2018-08-13T22:03:02.422Z,99.90
2018-08-13T22:05:31.593Z,99.90
2018-08-13T22:08:00.883Z,99.90
2018-08-13T22:10:30.138Z,99.90
2018-08-13T22:12:59.470Z,99.90
2018-08-13T22:15:32.221Z,99.90
2018-08-13T22:18:02.969Z,99.90
2018-08-13T22:20:33.922Z,99.90
2018-08-13T22:23:04.329Z,99.90
2018-08-13T22:25:42.839Z,99.90
2018-08-13T22:28:15.029Z,99.90
2018-08-13T22:30:44.198Z,99.90
2018-08-13T22:33:13.445Z,99.90
2018-08-13T22:35:42.961Z,99.90
2018-08-13T22:38:12.086Z,99.90
2018-08-13T22:40:41.818Z,99.90
2018-08-13T22:43:10.998Z,99.90
2018-08-13T22:45:40.112Z,99.90
2018-08-13T22:48:09.447Z,99.90
2018-08-13T22:50:39.002Z,99.90
2018-08-13T22:53:08.541Z,99.90
2018-08-13T22:55:37.644Z,99.90
2018-08-13T22:58:06.775Z,99.90
2018-08-13T23:00:36.098Z,99.90
2018-08-13T23:03:06.526Z,99.90
2018-08-13T23:05:38.107Z,99.90
2018-08-13T23:08:07.737Z,99.90
2018-08-13T23:10:36.945Z,99.90
2018-08-13T23:13:10.986Z,99.90
2018-08-13T23:15:40.137Z,99.90
2018-08-13T23:18:09.288Z,99.90
2018-08-13T23:20:39.110Z,99.90
2018-08-13T23:23:08.291Z,99.90
2018-08-13T23:25:37.820Z,99.90
2018-08-13T23:28:09.861Z,99.90
2018-08-13T23:30:39.054Z,99.90
2018-08-13T23:33:08.755Z,99.90
2018-08-13T23:35:37.913Z,99.90
2018-08-13T23:38:07.053Z,99.90
2018-08-13T23:40:36.158Z,99.90
2018-08-13T23:43:05.306Z,99.90
2018-08-13T23:45:35.002Z,99.90
2018-08-13T23:48:04.165Z,99.90
2018-08-13T23:50:33.269Z,99.90
2018-08-13T23:53:02.406Z,99.90
2018-08-13T23:55:38.730Z,99.90
2018-08-13T23:58:11.449Z,99.90
